Time;durP1;ratioP1;P1;durP2;ratioP2;P2;SDS_P1;SDS_P2;PMS_P1;PMS_P2;Temp;Humidity;BMP_temperature;BMP_pressure;BME280_temperature;BME280_humidity;BME280_pressure;Samples;Min_cycle;Max_cycle;Signal;HPM_P1;HPM_P2
2023/03/03 00:01:24;;;;;;;3.40;1.40;;;;;;;-144.57;100.00;62443.72;5091153;28;20055;-64
2023/03/03 00:03:51;;;;;;;2.28;1.55;;;;;;;-144.57;100.00;62443.72;5092512;28;20052;-65
2023/03/03 00:06:16;;;;;;;2.70;2.00;;;;;;;-144.57;100.00;62443.72;5074392;28;20050;-64
2023/03/03 00:08:42;;;;;;;3.63;1.50;;;;;;;-144.57;100.00;62443.72;5074035;28;20459;-62
2023/03/03 00:11:09;;;;;;;4.88;1.85;;;;;;;-144.57;100.00;62443.72;5091144;28;20040;-64
2023/03/03 00:13:55;;;;;;;1.88;1.50;;;;;;;-144.57;100.00;62443.72;5092034;28;20086;-64
2023/03/03 00:16:27;;;;;;;4.18;1.65;;;;;;;-144.57;100.00;62443.72;5092378;28;20068;-63
2023/03/03 00:18:54;;;;;;;2.80;1.50;;;;;;;-144.57;100.00;62443.72;5090551;28;20043;-64
2023/03/03 00:21:28;;;;;;;3.25;1.65;;;;;;;-144.57;100.00;62443.72;5090983;28;20047;-65
2023/03/03 00:24:13;;;;;;;2.63;1.40;;;;;;;-144.57;100.00;62443.72;5091672;28;20488;-64
2023/03/03 00:26:40;;;;;;;5.13;2.00;;;;;;;-144.57;100.00;62443.72;5092142;28;20058;-62
2023/03/03 00:29:45;;;;;;;2.58;1.50;;;;;;;-144.57;100.00;62443.72;5073501;28;20044;-65
2023/03/03 00:32:11;;;;;;;3.35;1.45;;;;;;;-144.57;100.00;62443.72;5032916;28;20084;-63
2023/03/03 00:34:36;;;;;;;5.65;1.80;;;;;;;-144.57;100.00;62443.72;5032283;28;20108;-64
2023/03/03 00:37:02;;;;;;;4.40;1.60;;;;;;;-144.57;100.00;62443.72;5058189;28;20094;-64
2023/03/03 00:39:31;;;;;;;2.47;1.38;;;;;;;-144.57;100.00;62443.72;5091906;28;20112;-63
2023/03/03 00:41:58;;;;;;;6.20;1.60;;;;;;;-144.57;100.00;62443.72;5073705;28;20045;-64
2023/03/03 00:44:37;;;;;;;3.83;1.70;;;;;;;-144.57;100.00;62443.72;5070247;28;20071;-63
2023/03/03 00:47:26;;;;;;;4.88;1.90;;;;;;;-144.57;100.00;62443.72;5070096;28;20041;-64
2023/03/03 00:49:53;;;;;;;4.22;1.63;;;;;;;-144.57;100.00;62443.72;5087994;28;20044;-65
2023/03/03 00:52:20;;;;;;;2.45;1.35;;;;;;;-144.57;100.00;62443.72;5090274;28;20052;-63
2023/03/03 00:54:46;;;;;;;7.22;1.90;;;;;;;-144.57;100.00;62443.72;5073713;28;20050;-64
2023/03/03 00:57:12;;;;;;;3.17;1.50;;;;;;;-144.57;100.00;62443.72;5091661;28;20163;-65
2023/03/03 00:59:40;;;;;;;3.30;1.60;;;;;;;-144.57;100.00;62443.72;5090069;28;20451;-64
2023/03/03 01:02:06;;;;;;;3.72;1.65;;;;;;;-144.57;100.00;62443.72;5073711;28;20126;-64
2023/03/03 01:04:32;;;;;;;4.13;1.75;;;;;;;-144.57;100.00;62443.72;5073157;28;20043;-66
2023/03/03 01:06:57;;;;;;;5.32;1.60;;;;;;;-144.57;100.00;62443.72;5090197;28;20044;-66
2023/03/03 01:09:23;;;;;;;2.95;1.67;;;;;;;-144.57;100.00;62443.72;5090038;28;20521;-64
2023/03/03 01:11:49;;;;;;;2.60;1.65;;;;;;;-144.57;100.00;62443.72;5089972;28;20044;-66
2023/03/03 01:14:15;;;;;;;4.10;1.80;;;;;;;-144.57;100.00;62443.72;5090028;28;20036;-64
2023/03/03 01:16:41;;;;;;;2.45;1.40;;;;;;;-144.57;100.00;62443.72;5073273;28;20074;-63
2023/03/03 01:19:07;;;;;;;2.28;1.40;;;;;;;-144.57;100.00;62443.72;5073172;28;20067;-64
2023/03/03 01:21:33;;;;;;;3.63;1.50;;;;;;;-144.57;100.00;62443.72;5090064;28;20048;-65
2023/03/03 01:23:58;;;;;;;4.00;1.52;;;;;;;-144.57;100.00;62443.72;5089388;28;20047;-63
2023/03/03 01:26:24;;;;;;;3.97;1.70;;;;;;;-144.57;100.00;62443.72;5091629;28;20055;-66
2023/03/03 01:28:50;;;;;;;4.57;1.70;;;;;;;-144.57;100.00;62443.72;5090599;28;20094;-65
2023/03/03 01:31:16;;;;;;;4.28;1.95;;;;;;;-144.57;100.00;62443.72;5091632;28;20048;-66
2023/03/03 01:33:42;;;;;;;6.55;2.00;;;;;;;-144.57;100.00;62443.72;5089834;28;20404;-64
2023/03/03 01:36:08;;;;;;;3.22;1.58;;;;;;;-144.57;100.00;62443.72;5091203;28;20051;-66
2023/03/03 01:38:37;;;;;;;4.25;1.67;;;;;;;-144.57;100.00;62443.72;5090822;28;20055;-64
2023/03/03 01:41:04;;;;;;;3.40;1.80;;;;;;;-144.57;100.00;62443.72;5091229;28;20150;-66
2023/03/03 01:43:31;;;;;;;5.30;1.83;;;;;;;-144.57;100.00;62443.72;5089661;28;20516;-65
2023/03/03 01:45:56;;;;;;;4.80;1.67;;;;;;;-144.57;100.00;62443.72;5089850;28;20102;-63
2023/03/03 01:48:43;;;;;;;5.78;2.72;;;;;;;-144.57;100.00;62443.72;5089760;28;20036;-64
2023/03/03 01:51:17;;;;;;;5.68;1.80;;;;;;;-144.57;100.00;62443.72;5088753;28;20040;-64
2023/03/03 01:54:03;;;;;;;6.05;1.77;;;;;;;-144.57;100.00;62443.72;5090402;28;20040;-62
2023/03/03 01:56:29;;;;;;;3.65;2.15;;;;;;;-144.57;100.00;62443.72;5091319;28;20036;-64
2023/03/03 01:59:02;;;;;;;3.35;1.20;;;;;;;-144.57;100.00;62443.72;5090141;28;20398;-66
2023/03/03 02:01:28;;;;;;;4.07;1.70;;;;;;;-144.57;100.00;62443.72;5094848;28;20512;-65
2023/03/03 02:03:57;;;;;;;3.60;1.85;;;;;;;-144.57;100.00;62443.72;5060571;28;20969;-64
2023/03/03 02:06:26;;;;;;;3.28;1.67;;;;;;;-144.57;100.00;62443.72;5093405;28;20126;-65
2023/03/03 02:09:08;;;;;;;4.70;1.90;;;;;;;-144.57;100.00;62443.72;5094527;28;20078;-63
2023/03/03 02:11:35;;;;;;;4.20;1.85;;;;;;;-144.57;100.00;62443.72;5093485;28;20052;-64
2023/03/03 02:14:01;;;;;;;4.53;1.88;;;;;;;-144.57;100.00;62443.72;5076207;28;20036;-65
2023/03/03 02:16:27;;;;;;;4.57;2.00;;;;;;;-144.57;100.00;62443.72;5093730;28;20521;-66
2023/03/03 02:18:53;;;;;;;7.00;1.67;;;;;;;-144.57;100.00;62443.72;5093438;28;20055;-65
2023/03/03 02:21:21;;;;;;;2.33;1.55;;;;;;;-144.57;100.00;62443.72;5093231;28;20071;-64
2023/03/03 02:24:01;;;;;;;6.13;1.70;;;;;;;-144.57;100.00;62443.72;5092915;28;20390;-63
2023/03/03 02:26:29;;;;;;;5.53;1.70;;;;;;;-144.57;100.00;62443.72;5059657;28;20428;-64
2023/03/03 02:29:00;;;;;;;4.70;1.73;;;;;;;-144.57;100.00;62443.72;5076925;28;20051;-65
2023/03/03 02:31:29;;;;;;;6.13;2.03;;;;;;;-144.57;100.00;62443.72;5093180;28;20043;-65
2023/03/03 02:33:56;;;;;;;4.68;2.40;;;;;;;-144.57;100.00;62443.72;5092899;28;20040;-65
2023/03/03 02:36:31;;;;;;;7.05;1.70;;;;;;;-144.57;100.00;62443.72;5094571;28;20534;-66
2023/03/03 02:39:26;;;;;;;4.00;1.90;;;;;;;-144.57;100.00;62443.72;5076332;28;20500;-64
2023/03/03 02:42:16;;;;;;;4.75;1.80;;;;;;;-144.57;100.00;62443.72;5080304;28;20149;-65
2023/03/03 02:44:48;;;;;;;4.13;1.95;;;;;;;-144.57;100.00;62443.72;5092721;28;20401;-66
2023/03/03 02:47:13;;;;;;;4.88;2.00;;;;;;;-144.57;100.00;62443.72;5072481;28;20441;-64
2023/03/03 02:49:39;;;;;;;1.83;1.52;;;;;;;-144.57;100.00;62443.72;5063908;28;20044;-64
2023/03/03 02:52:11;;;;;;;4.72;1.80;;;;;;;-144.57;100.00;62443.72;5092310;28;20056;-65
2023/03/03 02:54:40;;;;;;;5.20;1.88;;;;;;;-144.57;100.00;62443.72;5075522;28;20032;-65
2023/03/03 02:57:07;;;;;;;4.78;1.63;;;;;;;-144.57;100.00;62443.72;5092411;28;20074;-64
2023/03/03 02:59:33;;;;;;;4.07;1.75;;;;;;;-144.57;100.00;62443.72;5092153;28;20040;-64
2023/03/03 03:02:07;;;;;;;4.65;1.80;;;;;;;-144.57;100.00;62443.72;5075630;28;20501;-63
2023/03/03 03:04:33;;;;;;;2.80;1.70;;;;;;;-144.57;100.00;62443.72;5075695;28;20031;-63
2023/03/03 03:06:59;;;;;;;5.47;1.80;;;;;;;-144.57;100.00;62443.72;5075476;28;20040;-63
2023/03/03 03:09:27;;;;;;;4.85;1.50;;;;;;;-144.57;100.00;62443.72;5092194;28;20580;-63
2023/03/03 03:11:53;;;;;;;3.03;1.60;;;;;;;-144.57;100.00;62443.72;5091560;28;20115;-63
2023/03/03 03:14:22;;;;;;;3.80;1.90;;;;;;;-144.57;100.00;62443.72;5075033;28;20039;-63
2023/03/03 03:16:49;;;;;;;4.63;2.17;;;;;;;-144.57;100.00;62443.72;5092195;28;20048;-63
2023/03/03 03:19:15;;;;;;;2.88;1.70;;;;;;;-144.57;100.00;62443.72;5092112;28;20128;-63
2023/03/03 03:21:42;;;;;;;3.53;1.77;;;;;;;-144.57;100.00;62443.72;5091982;28;20056;-65
2023/03/03 03:24:09;;;;;;;5.55;1.90;;;;;;;-144.57;100.00;62443.72;5075176;28;20031;-63
2023/03/03 03:26:37;;;;;;;2.47;1.65;;;;;;;-144.57;100.00;62443.72;5074771;28;20055;-64
2023/03/03 03:29:03;;;;;;;3.90;1.65;;;;;;;-144.57;100.00;62443.72;5092015;28;20035;-64
2023/03/03 03:31:30;;;;;;;4.28;1.70;;;;;;;-144.57;100.00;62443.72;5075024;28;20074;-64
2023/03/03 03:33:56;;;;;;;3.35;1.60;;;;;;;-144.57;100.00;62443.72;5074865;28;20040;-65
2023/03/03 03:36:23;;;;;;;3.10;1.85;;;;;;;-144.57;100.00;62443.72;5091604;28;20044;-63
2023/03/03 03:38:49;;;;;;;2.45;1.77;;;;;;;-144.57;100.00;62443.72;5092067;28;20470;-63
2023/03/03 03:41:15;;;;;;;3.35;1.55;;;;;;;-144.57;100.00;62443.72;5091418;28;20131;-65
2023/03/03 03:43:41;;;;;;;4.32;1.90;;;;;;;-144.57;100.00;62443.72;5091622;28;20044;-64
2023/03/03 03:46:07;;;;;;;3.63;1.88;;;;;;;-144.57;100.00;62443.72;5091441;28;20566;-65
2023/03/03 03:48:34;;;;;;;3.50;1.85;;;;;;;-144.57;100.00;62443.72;5074607;28;20673;-64
2023/03/03 03:51:02;;;;;;;4.07;2.17;;;;;;;-144.57;100.00;62443.72;5092334;28;20083;-64
2023/03/03 03:53:29;;;;;;;4.95;1.85;;;;;;;-144.57;100.00;62443.72;5091272;28;20485;-64
2023/03/03 03:55:55;;;;;;;5.30;2.17;;;;;;;-144.57;100.00;62443.72;5074214;28;20048;-64
2023/03/03 03:58:21;;;;;;;3.65;1.70;;;;;;;-144.57;100.00;62443.72;5091395;28;20522;-65
2023/03/03 04:00:53;;;;;;;3.67;1.98;;;;;;;-144.57;100.00;62443.72;5091188;28;20051;-65
2023/03/03 04:03:19;;;;;;;3.97;2.03;;;;;;;-144.57;100.00;62443.72;5091266;28;20181;-63
2023/03/03 04:05:46;;;;;;;6.38;1.98;;;;;;;-144.57;100.00;62443.72;5090851;28;20048;-64
2023/03/03 04:08:12;;;;;;;3.75;1.90;;;;;;;-144.57;100.00;62443.72;5091539;28;20048;-64
2023/03/03 04:10:39;;;;;;;4.15;1.70;;;;;;;-144.57;100.00;62443.72;5092608;28;20496;-63
2023/03/03 04:13:05;;;;;;;6.18;1.75;;;;;;;-144.57;100.00;62443.72;5074155;28;20044;-64
2023/03/03 04:15:32;;;;;;;4.65;1.95;;;;;;;-144.57;100.00;62443.72;5073996;28;20591;-64
2023/03/03 04:18:00;;;;;;;3.97;1.88;;;;;;;-144.57;100.00;62443.72;5090845;28;20044;-64
2023/03/03 04:20:26;;;;;;;4.18;1.73;;;;;;;-144.57;100.00;62443.72;5073584;28;20036;-64
2023/03/03 04:22:55;;;;;;;5.20;2.03;;;;;;;-144.57;100.00;62443.72;5090725;28;20122;-66
2023/03/03 04:25:21;;;;;;;7.88;2.25;;;;;;;-144.57;100.00;62443.72;5090535;28;20537;-64
2023/03/03 04:27:48;;;;;;;4.75;1.92;;;;;;;-144.57;100.00;62443.72;5090717;28;20421;-64
2023/03/03 04:30:17;;;;;;;5.20;2.30;;;;;;;-144.57;100.00;62443.72;5073986;28;20032;-63
2023/03/03 04:32:46;;;;;;;4.43;1.85;;;;;;;-144.57;100.00;62443.72;5090578;28;20532;-65
2023/03/03 04:35:12;;;;;;;6.05;1.80;;;;;;;-144.57;100.00;62443.72;5090362;28;20043;-64
2023/03/03 04:37:41;;;;;;;3.35;1.90;;;;;;;-144.57;100.00;62443.72;5090509;28;20093;-64
2023/03/03 04:40:09;;;;;;;4.68;1.70;;;;;;;-144.57;100.00;62443.72;5090039;28;20451;-64
2023/03/03 04:42:35;;;;;;;6.25;1.80;;;;;;;-144.57;100.00;62443.72;5073679;28;20090;-64
2023/03/03 04:45:03;;;;;;;4.85;1.80;;;;;;;-144.57;100.00;62443.72;5085472;28;20040;-64
2023/03/03 04:47:31;;;;;;;5.38;2.03;;;;;;;-144.57;100.00;62443.72;5066864;28;20044;-64
2023/03/03 04:49:57;;;;;;;4.57;2.30;;;;;;;-144.57;100.00;62443.72;5067698;28;20076;-65
2023/03/03 04:52:25;;;;;;;6.00;1.95;;;;;;;-144.57;100.00;62443.72;5085507;28;20066;-65
2023/03/03 04:54:51;;;;;;;6.38;2.10;;;;;;;-144.57;100.00;62443.72;5087584;28;20031;-66
2023/03/03 04:57:17;;;;;;;6.95;2.20;;;;;;;-144.57;100.00;62443.72;5084748;28;20040;-67
2023/03/03 04:59:43;;;;;;;5.35;2.00;;;;;;;-144.57;100.00;62443.72;5071784;28;20113;-64
2023/03/03 05:02:09;;;;;;;6.10;2.15;;;;;;;-144.57;100.00;62443.72;5087252;28;20427;-66
2023/03/03 05:04:35;;;;;;;6.07;2.35;;;;;;;-144.57;100.00;62443.72;5086846;28;20401;-64
2023/03/03 05:07:01;;;;;;;4.63;1.73;;;;;;;-144.57;100.00;62443.72;5089181;28;20052;-63
2023/03/03 05:09:27;;;;;;;5.63;2.05;;;;;;;-144.57;100.00;62443.72;5088656;28;20052;-63
2023/03/03 05:11:53;;;;;;;6.22;2.17;;;;;;;-144.57;100.00;62443.72;5088229;28;20468;-66
2023/03/03 05:14:19;;;;;;;3.63;1.88;;;;;;;-144.57;100.00;62443.72;5071467;28;20071;-65
2023/03/03 05:16:45;;;;;;;5.18;1.85;;;;;;;-144.57;100.00;62443.72;5088515;28;20075;-67
2023/03/03 05:19:11;;;;;;;7.07;2.50;;;;;;;-144.57;100.00;62443.72;5089464;28;20050;-63
2023/03/03 05:21:41;;;;;;;7.93;2.17;;;;;;;-144.57;100.00;62443.72;5049994;28;20062;-65
2023/03/03 05:24:10;;;;;;;5.53;2.00;;;;;;;-144.57;100.00;62443.72;5049727;28;20051;-65
2023/03/03 05:26:36;;;;;;;6.07;2.22;;;;;;;-144.57;100.00;62443.72;5081909;28;20298;-62
2023/03/03 05:29:02;;;;;;;4.80;2.00;;;;;;;-144.57;100.00;62443.72;5086090;28;20509;-61
2023/03/03 05:31:28;;;;;;;8.02;2.22;;;;;;;-144.57;100.00;62443.72;5086297;28;20075;-65
2023/03/03 05:33:53;;;;;;;5.47;2.70;;;;;;;-144.57;100.00;62443.72;5085378;28;20043;-63
2023/03/03 05:36:19;;;;;;;7.53;2.00;;;;;;;-144.57;100.00;62443.72;5088184;28;20040;-64
2023/03/03 05:38:45;;;;;;;7.35;1.92;;;;;;;-144.57;100.00;62443.72;5089007;28;20046;-64
2023/03/03 05:41:10;;;;;;;5.10;2.00;;;;;;;-144.57;100.00;62443.72;5088556;28;20147;-63
2023/03/03 05:43:36;;;;;;;7.20;1.90;;;;;;;-144.57;100.00;62443.72;5088868;28;20297;-65
2023/03/03 05:46:03;;;;;;;8.57;2.40;;;;;;;-144.57;100.00;62443.72;5087583;28;20051;-64
2023/03/03 05:48:28;;;;;;;6.53;2.10;;;;;;;-144.57;100.00;62443.72;5087377;28;20064;-60
2023/03/03 05:50:58;;;;;;;10.20;2.03;;;;;;;-144.57;100.00;62443.72;5087137;28;20132;-63
2023/03/03 05:53:24;;;;;;;9.02;2.50;;;;;;;-144.57;100.00;62443.72;5093562;28;20551;-65
2023/03/03 05:55:50;;;;;;;4.97;2.05;;;;;;;-144.57;100.00;62443.72;5089603;28;20052;-62
2023/03/03 05:58:16;;;;;;;8.95;2.40;;;;;;;-144.57;100.00;62443.72;5090567;28;20039;-62
2023/03/03 06:00:41;;;;;;;6.72;2.10;;;;;;;-144.57;100.00;62443.72;5090117;28;20044;-63
2023/03/03 06:03:07;;;;;;;10.50;2.00;;;;;;;-144.57;100.00;62443.72;5091308;28;20131;-62
2023/03/03 06:05:32;;;;;;;6.95;1.88;;;;;;;-144.57;100.00;62443.72;5089758;28;20066;-64
2023/03/03 06:07:58;;;;;;;4.55;1.77;;;;;;;-144.57;100.00;62443.72;5088775;28;20059;-62
2023/03/03 06:10:24;;;;;;;2.85;1.60;;;;;;;-144.57;100.00;62443.72;5089484;28;20042;-63
2023/03/03 06:12:54;;;;;;;6.55;2.20;;;;;;;-144.57;100.00;62443.72;5088901;28;20436;-65
2023/03/03 06:15:22;;;;;;;5.05;2.42;;;;;;;-144.57;100.00;62443.72;5089988;28;20051;-64
2023/03/03 06:17:48;;;;;;;6.28;1.80;;;;;;;-144.57;100.00;62443.72;5090163;28;20645;-63
2023/03/03 06:20:13;;;;;;;4.97;1.92;;;;;;;-144.57;100.00;62443.72;5088290;28;20078;-64
2023/03/03 06:22:39;;;;;;;6.70;2.10;;;;;;;-144.57;100.00;62443.72;5072750;28;20489;-63
2023/03/03 06:25:05;;;;;;;5.32;2.38;;;;;;;-144.57;100.00;62443.72;5087825;28;20123;-63
2023/03/03 06:27:31;;;;;;;4.22;1.80;;;;;;;-144.57;100.00;62443.72;5088474;28;20161;-64
2023/03/03 06:29:56;;;;;;;6.22;2.30;;;;;;;-144.57;100.00;62443.72;5087731;28;20044;-66
2023/03/03 06:32:22;;;;;;;9.20;2.28;;;;;;;-144.57;100.00;62443.72;5088486;28;20054;-68
2023/03/03 06:34:48;;;;;;;5.45;1.80;;;;;;;-144.57;100.00;62443.72;5088158;28;20067;-65
2023/03/03 06:37:13;;;;;;;4.65;2.17;;;;;;;-144.57;100.00;62443.72;5088207;28;20499;-66
2023/03/03 06:39:39;;;;;;;7.10;2.03;;;;;;;-144.57;100.00;62443.72;5089572;28;20233;-66
2023/03/03 06:42:06;;;;;;;4.90;1.80;;;;;;;-144.57;100.00;62443.72;5073468;28;20137;-65
2023/03/03 06:44:31;;;;;;;3.63;1.80;;;;;;;-144.57;100.00;62443.72;5090167;28;20040;-65
2023/03/03 06:46:57;;;;;;;8.25;1.80;;;;;;;-144.57;100.00;62443.72;5089546;28;20444;-67
2023/03/03 06:49:23;;;;;;;8.25;2.10;;;;;;;-144.57;100.00;62443.72;5087550;28;20089;-64
2023/03/03 06:51:49;;;;;;;9.10;2.13;;;;;;;-144.57;100.00;62443.72;5088115;28;20044;-65
2023/03/03 06:54:27;;;;;;;5.47;1.92;;;;;;;-144.57;100.00;62443.72;5087833;28;20047;-65
2023/03/03 06:56:59;;;;;;;5.68;2.13;;;;;;;-144.57;100.00;62443.72;5070439;28;20044;-66
2023/03/03 06:59:26;;;;;;;7.03;1.95;;;;;;;-144.57;100.00;62443.72;5037383;28;20056;-65
2023/03/03 07:01:52;;;;;;;5.63;1.95;;;;;;;-144.57;100.00;62443.72;5088577;28;20623;-65
2023/03/03 07:04:18;;;;;;;6.32;2.40;;;;;;;-144.57;100.00;62443.72;5088658;28;20047;-65
2023/03/03 07:06:44;;;;;;;5.38;1.95;;;;;;;-144.57;100.00;62443.72;5087944;28;20409;-66
2023/03/03 07:09:20;;;;;;;6.28;1.85;;;;;;;-144.57;100.00;62443.72;5070655;28;20047;-67
2023/03/03 07:11:45;;;;;;;6.60;2.17;;;;;;;-144.57;100.00;62443.72;5089756;28;20044;-66
2023/03/03 07:14:16;;;;;;;3.08;1.88;;;;;;;-144.57;100.00;62443.72;5088830;28;20047;-66
2023/03/03 07:16:41;;;;;;;;;;;;;;;-144.57;100.00;62443.72;5090390;28;20121;-65
2023/03/03 07:19:18;;;;;;;4.57;1.75;;;;;;;-144.57;100.00;62443.72;5091401;28;19986;-66
2023/03/03 07:21:44;;;;;;;10.10;2.75;;;;;;;-144.57;100.00;62443.72;5090619;28;20036;-65
2023/03/03 07:24:25;;;;;;;5.65;2.10;;;;;;;-144.57;100.00;62443.72;5091590;28;20513;-64
2023/03/03 07:26:51;;;;;;;5.28;2.40;;;;;;;-144.57;100.00;62443.72;5091358;28;20056;-66
2023/03/03 07:29:27;;;;;;;6.18;2.10;;;;;;;-144.57;100.00;62443.72;5071366;28;20193;-64
2023/03/03 07:31:54;;;;;;;5.57;2.30;;;;;;;-144.57;100.00;62443.72;5090561;28;20599;-66
2023/03/03 07:34:30;;;;;;;8.95;2.20;;;;;;;-144.57;100.00;62443.72;5073556;28;20040;-67
2023/03/03 07:37:03;;;;;;;5.15;2.40;;;;;;;-144.57;100.00;62443.72;5069939;28;20040;-64
2023/03/03 07:39:39;;;;;;;6.15;2.40;;;;;;;-144.57;100.00;62443.72;5052327;28;20080;-66
2023/03/03 07:42:08;;;;;;;6.93;2.50;;;;;;;-144.57;100.00;62443.72;5079431;28;20044;-66
2023/03/03 07:44:35;;;;;;;5.18;2.20;;;;;;;-144.57;100.00;62443.72;5091398;28;20050;-67
2023/03/03 07:47:14;;;;;;;9.02;2.38;;;;;;;-144.57;100.00;62443.72;5090939;28;20040;-63
2023/03/03 07:49:39;;;;;;;7.25;2.80;;;;;;;-144.57;100.00;62443.72;5090182;28;20435;-60
2023/03/03 07:52:27;;;;;;;8.80;2.80;;;;;;;-144.57;100.00;62443.72;5090014;28;20052;-60
2023/03/03 07:54:54;;;;;;;4.32;2.22;;;;;;;-144.57;100.00;62443.72;5090623;28;20043;-59
2023/03/03 07:57:36;;;;;;;4.88;2.10;;;;;;;-144.57;100.00;62443.72;5087912;28;20056;-59
2023/03/03 08:00:27;;;;;;;5.80;2.55;;;;;;;-144.57;100.00;62443.72;5090685;28;20093;-61
2023/03/03 08:03:03;;;;;;;6.70;2.22;;;;;;;-144.57;100.00;62443.72;5091327;28;20048;-60
2023/03/03 08:05:42;;;;;;;6.38;2.15;;;;;;;-144.57;100.00;62443.72;5090300;28;20138;-61
2023/03/03 08:08:10;;;;;;;3.92;2.30;;;;;;;-144.57;100.00;62443.72;5089579;28;20044;-62
2023/03/03 08:10:44;;;;;;;8.30;2.38;;;;;;;-144.57;100.00;62443.72;5087838;28;20040;-62
2023/03/03 08:13:17;;;;;;;7.55;2.65;;;;;;;-144.57;100.00;62443.72;5071373;28;20135;-61
2023/03/03 08:15:45;;;;;;;4.72;2.10;;;;;;;-144.57;100.00;62443.72;5089917;28;20044;-61
2023/03/03 08:18:22;;;;;;;5.25;2.40;;;;;;;-144.57;100.00;62443.72;5089663;28;20478;-60
2023/03/03 08:20:58;;;;;;;7.00;2.45;;;;;;;-144.57;100.00;62443.72;5089537;28;20384;-60
2023/03/03 08:23:24;;;;;;;6.13;2.22;;;;;;;-144.57;100.00;62443.72;5088698;28;20505;-61
2023/03/03 08:25:50;;;;;;;7.20;2.90;;;;;;;-144.57;100.00;62443.72;5088117;28;20048;-60
2023/03/03 08:28:16;;;;;;;7.32;2.83;;;;;;;-144.57;100.00;62443.72;5088165;28;20086;-62
2023/03/03 08:30:42;;;;;;;6.75;2.88;;;;;;;-144.57;100.00;62443.72;5088090;28;20504;-61
2023/03/03 08:33:08;;;;;;;5.35;2.42;;;;;;;-144.57;100.00;62443.72;5087913;28;20043;-62
2023/03/03 08:35:34;;;;;;;4.00;2.65;;;;;;;-144.57;100.00;62443.72;5088048;28;20469;-61
2023/03/03 08:37:59;;;;;;;8.93;2.53;;;;;;;-144.57;100.00;62443.72;5086539;28;20052;-62
2023/03/03 08:40:25;;;;;;;4.90;2.50;;;;;;;-144.57;100.00;62443.72;5089154;28;20043;-63
2023/03/03 08:42:53;;;;;;;4.63;2.47;;;;;;;-144.57;100.00;62443.72;5090944;28;20413;-59
2023/03/03 08:45:19;;;;;;;5.25;2.13;;;;;;;-144.57;100.00;62443.72;5088770;28;20043;-62
2023/03/03 08:47:44;;;;;;;5.43;2.25;;;;;;;-144.57;100.00;62443.72;5086387;28;20040;-61
2023/03/03 08:50:11;;;;;;;5.53;2.80;;;;;;;-144.57;100.00;62443.72;5087536;28;20123;-63
2023/03/03 08:52:37;;;;;;;6.97;2.80;;;;;;;-144.57;100.00;62443.72;5089071;28;20217;-62
2023/03/03 08:55:04;;;;;;;5.80;2.20;;;;;;;-144.57;100.00;62443.72;5089086;28;20040;-61
2023/03/03 08:57:30;;;;;;;6.13;2.30;;;;;;;-144.57;100.00;62443.72;5088915;28;20036;-62
2023/03/03 08:59:55;;;;;;;4.78;2.17;;;;;;;-144.57;100.00;62443.72;5088866;28;20375;-61
2023/03/03 09:02:21;;;;;;;6.57;2.53;;;;;;;-144.57;100.00;62443.72;5069408;28;20046;-60
2023/03/03 09:04:47;;;;;;;3.78;1.95;;;;;;;-144.57;100.00;62443.72;5085064;28;20402;-60
2023/03/03 09:07:13;;;;;;;4.10;2.38;;;;;;;-144.57;100.00;62443.72;5088473;28;20044;-62
2023/03/03 09:09:38;;;;;;;2.55;2.05;;;;;;;-144.57;100.00;62443.72;5088758;28;20039;-61
2023/03/03 09:12:20;;;;;;;5.40;2.45;;;;;;;-144.57;100.00;62443.72;5089876;28;20417;-61
2023/03/03 09:14:46;;;;;;;7.38;2.20;;;;;;;-144.57;100.00;62443.72;5087673;28;20127;-61
2023/03/03 09:17:24;;;;;;;7.28;2.50;;;;;;;-144.57;100.00;62443.72;5069589;28;20169;-62
2023/03/03 09:19:50;;;;;;;9.48;2.50;;;;;;;-144.57;100.00;62443.72;5088188;28;20417;-61
2023/03/03 09:22:23;;;;;;;4.53;2.20;;;;;;;-144.57;100.00;62443.72;5086867;28;20047;-61
2023/03/03 09:24:52;;;;;;;5.43;2.30;;;;;;;-144.57;100.00;62443.72;5087524;28;20497;-60
2023/03/03 09:27:28;;;;;;;5.75;2.10;;;;;;;-144.57;100.00;62443.72;5089392;28;20433;-60
2023/03/03 09:29:55;;;;;;;3.70;2.20;;;;;;;-144.57;100.00;62443.72;5088595;28;20059;-61
2023/03/03 09:32:38;;;;;;;4.28;2.10;;;;;;;-144.57;100.00;62443.72;5053762;28;20036;-62
2023/03/03 09:35:26;;;;;;;4.95;2.28;;;;;;;-144.57;100.00;62443.72;5088638;28;20177;-60
2023/03/03 09:37:52;;;;;;;3.13;1.90;;;;;;;-144.57;100.00;62443.72;5086965;28;20059;-62
2023/03/03 09:40:38;;;;;;;3.17;1.70;;;;;;;-144.57;100.00;62443.72;5086202;28;20052;-61
2023/03/03 09:43:08;;;;;;;2.95;1.65;;;;;;;-144.57;100.00;62443.72;5087643;28;20062;-60
2023/03/03 09:45:47;;;;;;;;;;;;;;;-144.57;100.00;62443.72;5086340;28;20497;-60
2023/03/03 09:48:18;;;;;;;6.72;1.90;;;;;;;-144.57;100.00;62443.72;5087775;28;19972;-61
2023/03/03 09:50:55;;;;;;;3.03;2.10;;;;;;;-144.57;100.00;62443.72;5087480;28;20451;-62
2023/03/03 09:53:32;;;;;;;4.88;2.50;;;;;;;-144.57;100.00;62443.72;5087830;28;20055;-61
2023/03/03 09:56:03;;;;;;;5.57;1.90;;;;;;;-144.57;100.00;62443.72;5086031;28;20048;-62
2023/03/03 09:58:54;;;;;;;7.20;2.33;;;;;;;-144.57;100.00;62443.72;5086692;28;20505;-63
2023/03/03 10:01:25;;;;;;;7.15;2.25;;;;;;;-144.57;100.00;62443.72;5086202;28;20048;-61
2023/03/03 10:04:23;;;;;;;3.03;1.85;;;;;;;-144.57;100.00;62443.72;5088031;28;20099;-62
2023/03/03 10:07:11;;;;;;;5.05;2.15;;;;;;;-144.57;100.00;62443.72;5052512;28;20392;-61
2023/03/03 10:10:09;;;;;;;4.60;2.10;;;;;;;-144.57;100.00;62443.72;5088574;28;20040;-61
2023/03/03 10:13:33;;;;;;;4.50;2.05;;;;;;;-144.57;100.00;62443.72;5062115;28;20071;-61
2023/03/03 10:16:24;;;;;;;2.88;1.92;;;;;;;-144.57;100.00;62443.72;5087194;28;20056;-61
2023/03/03 10:19:29;;;;;;;4.82;2.35;;;;;;;-144.57;100.00;62443.72;5089906;28;20404;-63
2023/03/03 10:22:02;;;;;;;4.10;1.90;;;;;;;-144.57;100.00;62443.72;5094031;28;20040;-62
2023/03/03 10:24:30;;;;;;;6.50;2.15;;;;;;;-144.57;100.00;62443.72;5093700;28;20043;-60
2023/03/03 10:27:24;;;;;;;4.95;1.90;;;;;;;-144.57;100.00;62443.72;5093853;28;20071;-62
2023/03/03 10:30:19;;;;;;;3.20;1.77;;;;;;;-144.57;100.00;62443.72;5092219;28;20059;-61
2023/03/03 10:32:45;;;;;;;5.82;2.03;;;;;;;-144.57;100.00;62443.72;5093519;28;20036;-62
2023/03/03 10:35:41;;;;;;;4.72;1.70;;;;;;;-144.57;100.00;62443.72;5093612;28;20134;-62
2023/03/03 10:38:37;;;;;;;4.88;1.80;;;;;;;-144.57;100.00;62443.72;5093428;28;20480;-61
2023/03/03 10:41:38;;;;;;;4.68;2.08;;;;;;;-144.57;100.00;62443.72;5092181;28;20078;-59
2023/03/03 10:44:23;;;;;;;7.72;2.03;;;;;;;-144.57;100.00;62443.72;5054941;28;20056;-61
2023/03/03 10:47:01;;;;;;;4.28;1.80;;;;;;;-144.57;100.00;62443.72;5076419;28;20044;-60
2023/03/03 10:49:42;;;;;;;3.13;1.48;;;;;;;-144.57;100.00;62443.72;5092678;28;20052;-60
2023/03/03 10:52:11;;;;;;;4.10;1.70;;;;;;;-144.57;100.00;62443.72;5091700;28;20047;-60
2023/03/03 10:55:03;;;;;;;3.22;1.60;;;;;;;-144.57;100.00;62443.72;5071614;28;20174;-60
2023/03/03 10:57:55;;;;;;;5.40;1.80;;;;;;;-144.57;100.00;62443.72;5046647;28;20060;-62
2023/03/03 11:00:31;;;;;;;3.78;1.83;;;;;;;-144.57;100.00;62443.72;5093338;28;20062;-60
2023/03/03 11:03:12;;;;;;;2.42;1.55;;;;;;;-144.57;100.00;62443.72;5090427;28;20038;-60
2023/03/03 11:05:54;;;;;;;2.67;1.60;;;;;;;-144.57;100.00;62443.72;5089391;28;20528;-61
2023/03/03 11:08:25;;;;;;;2.47;1.63;;;;;;;-144.57;100.00;62443.72;5088715;28;20036;-61
2023/03/03 11:11:09;;;;;;;2.85;1.70;;;;;;;-144.57;100.00;62443.72;5090355;28;20497;-61
2023/03/03 11:13:50;;;;;;;4.18;1.58;;;;;;;-144.57;100.00;62443.72;5084985;28;20316;-61
2023/03/03 11:16:19;;;;;;;4.32;1.85;;;;;;;-144.57;100.00;62443.72;5056515;28;20036;-60
2023/03/03 11:18:44;;;;;;;4.18;1.92;;;;;;;-144.57;100.00;62443.72;5090303;28;20491;-62
2023/03/03 11:21:31;;;;;;;3.33;1.63;;;;;;;-144.57;100.00;62443.72;5092778;28;20039;-62
2023/03/03 11:24:06;;;;;;;3.78;1.80;;;;;;;-144.57;100.00;62443.72;5090579;28;20040;-64
2023/03/03 11:26:41;;;;;;;4.65;2.38;;;;;;;-144.57;100.00;62443.72;5092910;28;20524;-60